Terminal Aerodrome Forecast
Issued by NWS Denver/Boulder, CO

Home | Current Version | Previous Version | Text Only | Print | Product List | Glossary On
Versions: 1 2 3 4 5 6 7 8 9 10 11 12 13 14 15 16 17 18 19 20 21 22 23 24 25 26 27 28 29 30 31 32 33 34 35 36 37 38 39 40 41 42 43 44
000
FTUS45 KBOU 251135
TAFDEN
TAF
KDEN 251135Z 2512/2618 33006KT P6SM FEW220
     FM251400 VRB06KT P6SM FEW080 SCT220
     FM251900 08009KT P6SM FEW080 SCT140
     FM260100 04011KT P6SM SCT080 BKN140
     FM260800 33008KT P6SM SCT100 BKN150=

USA.gov is the U.S. government's official web portal to all federal, state and local government web resources and services.